sensor_id;sensor_type;location;lat;lon;timestamp;temperature;humidity
79187;SHT31;68762;51.980;5.646;2023-10-09T00:00:13;17.2;70.8
79187;SHT31;68762;51.980;5.646;2023-10-09T00:03:11;17.2;70.6
79187;SHT31;68762;51.980;5.646;2023-10-09T00:05:39;17.2;70.5
79187;SHT31;68762;51.980;5.646;2023-10-09T00:08:12;17.2;70.6
79187;SHT31;68762;51.980;5.646;2023-10-09T00:10:47;17.2;70.8
79187;SHT31;68762;51.980;5.646;2023-10-09T00:13:21;17.2;70.9
79187;SHT31;68762;51.980;5.646;2023-10-09T00:16:05;17.2;70.4
79187;SHT31;68762;51.980;5.646;2023-10-09T00:18:37;17.2;71.0
79187;SHT31;68762;51.980;5.646;2023-10-09T00:21:05;17.2;71.2
79187;SHT31;68762;51.980;5.646;2023-10-09T00:23:39;17.2;71.2
79187;SHT31;68762;51.980;5.646;2023-10-09T00:26:09;17.2;71.2
79187;SHT31;68762;51.980;5.646;2023-10-09T00:28:42;17.2;70.7
79187;SHT31;68762;51.980;5.646;2023-10-09T00:31:14;17.3;71.3
79187;SHT31;68762;51.980;5.646;2023-10-09T00:33:49;17.3;71.0
79187;SHT31;68762;51.980;5.646;2023-10-09T00:36:18;17.3;71.4
79187;SHT31;68762;51.980;5.646;2023-10-09T00:38:53;17.3;71.5
79187;SHT31;68762;51.980;5.646;2023-10-09T00:41:24;17.3;71.2
79187;SHT31;68762;51.980;5.646;2023-10-09T00:43:56;17.3;71.8
79187;SHT31;68762;51.980;5.646;2023-10-09T00:46:27;17.3;71.5
79187;SHT31;68762;51.980;5.646;2023-10-09T00:48:57;17.3;72.0
79187;SHT31;68762;51.980;5.646;2023-10-09T00:51:29;17.3;71.2
79187;SHT31;68762;51.980;5.646;2023-10-09T00:54:06;17.3;72.3
79187;SHT31;68762;51.980;5.646;2023-10-09T00:56:41;17.2;72.5
79187;SHT31;68762;51.980;5.646;2023-10-09T00:59:15;17.2;72.5
79187;SHT31;68762;51.980;5.646;2023-10-09T01:01:47;17.2;72.8
79187;SHT31;68762;51.980;5.646;2023-10-09T01:04:22;17.2;72.7
79187;SHT31;68762;51.980;5.646;2023-10-09T01:06:52;17.2;72.9
79187;SHT31;68762;51.980;5.646;2023-10-09T01:09:35;17.2;73.0
79187;SHT31;68762;51.980;5.646;2023-10-09T01:12:05;17.2;72.9
79187;SHT31;68762;51.980;5.646;2023-10-09T01:14:34;17.2;73.2
79187;SHT31;68762;51.980;5.646;2023-10-09T01:17:04;17.2;73.1
79187;SHT31;68762;51.980;5.646;2023-10-09T01:19:35;17.3;73.2
79187;SHT31;68762;51.980;5.646;2023-10-09T01:22:04;17.3;73.3
79187;SHT31;68762;51.980;5.646;2023-10-09T01:24:38;17.3;73.4
79187;SHT31;68762;51.980;5.646;2023-10-09T01:27:07;17.3;73.5
79187;SHT31;68762;51.980;5.646;2023-10-09T01:29:42;17.3;73.6
79187;SHT31;68762;51.980;5.646;2023-10-09T01:32:12;17.3;73.6
79187;SHT31;68762;51.980;5.646;2023-10-09T01:34:46;17.3;73.7
79187;SHT31;68762;51.980;5.646;2023-10-09T01:37:18;17.3;73.6
79187;SHT31;68762;51.980;5.646;2023-10-09T01:39:49;17.3;73.8
79187;SHT31;68762;51.980;5.646;2023-10-09T01:42:19;17.4;73.9
79187;SHT31;68762;51.980;5.646;2023-10-09T01:44:56;17.4;73.9
79187;SHT31;68762;51.980;5.646;2023-10-09T01:47:33;17.4;73.9
79187;SHT31;68762;51.980;5.646;2023-10-09T01:50:04;17.4;73.9
79187;SHT31;68762;51.980;5.646;2023-10-09T01:52:39;17.4;74.1
79187;SHT31;68762;51.980;5.646;2023-10-09T01:55:11;17.5;74.1
79187;SHT31;68762;51.980;5.646;2023-10-09T01:57:47;17.5;74.1
79187;SHT31;68762;51.980;5.646;2023-10-09T02:00:19;17.5;74.3
79187;SHT31;68762;51.980;5.646;2023-10-09T02:02:55;17.5;74.2
79187;SHT31;68762;51.980;5.646;2023-10-09T02:05:29;17.5;74.1
79187;SHT31;68762;51.980;5.646;2023-10-09T02:08:00;17.6;74.1
79187;SHT31;68762;51.980;5.646;2023-10-09T02:10:30;17.6;73.9
79187;SHT31;68762;51.980;5.646;2023-10-09T02:13:06;17.6;74.0
79187;SHT31;68762;51.980;5.646;2023-10-09T02:15:37;17.6;73.7
79187;SHT31;68762;51.980;5.646;2023-10-09T02:18:16;17.7;73.5
79187;SHT31;68762;51.980;5.646;2023-10-09T02:20:47;17.7;73.7
79187;SHT31;68762;51.980;5.646;2023-10-09T02:23:23;17.7;73.5
79187;SHT31;68762;51.980;5.646;2023-10-09T02:25:57;17.7;73.4
79187;SHT31;68762;51.980;5.646;2023-10-09T02:28:31;17.8;73.3
79187;SHT31;68762;51.980;5.646;2023-10-09T02:31:09;17.8;73.3
79187;SHT31;68762;51.980;5.646;2023-10-09T02:33:37;17.8;73.2
79187;SHT31;68762;51.980;5.646;2023-10-09T02:36:05;17.8;73.2
79187;SHT31;68762;51.980;5.646;2023-10-09T02:38:35;17.8;73.2
79187;SHT31;68762;51.980;5.646;2023-10-09T02:41:06;17.8;73.2
79187;SHT31;68762;51.980;5.646;2023-10-09T02:43:49;17.8;73.1
79187;SHT31;68762;51.980;5.646;2023-10-09T02:46:22;17.8;73.2
79187;SHT31;68762;51.980;5.646;2023-10-09T02:48:57;17.8;73.2
79187;SHT31;68762;51.980;5.646;2023-10-09T02:51:30;17.8;73.3
79187;SHT31;68762;51.980;5.646;2023-10-09T02:54:09;17.8;73.2
79187;SHT31;68762;51.980;5.646;2023-10-09T02:56:52;17.8;73.3
79187;SHT31;68762;51.980;5.646;2023-10-09T02:59:28;17.9;73.3
79187;SHT31;68762;51.980;5.646;2023-10-09T03:01:57;17.9;73.3
79187;SHT31;68762;51.980;5.646;2023-10-09T03:04:26;17.9;73.4
79187;SHT31;68762;51.980;5.646;2023-10-09T03:06:57;17.9;73.5
79187;SHT31;68762;51.980;5.646;2023-10-09T03:09:27;17.9;73.5
79187;SHT31;68762;51.980;5.646;2023-10-09T03:11:57;17.9;73.5
79187;SHT31;68762;51.980;5.646;2023-10-09T03:14:29;17.9;73.5
79187;SHT31;68762;51.980;5.646;2023-10-09T03:16:58;17.9;73.5
79187;SHT31;68762;51.980;5.646;2023-10-09T03:19:28;17.9;73.5
79187;SHT31;68762;51.980;5.646;2023-10-09T03:21:57;17.9;73.5
79187;SHT31;68762;51.980;5.646;2023-10-09T03:24:26;17.9;73.4
79187;SHT31;68762;51.980;5.646;2023-10-09T03:26:55;17.9;73.5
79187;SHT31;68762;51.980;5.646;2023-10-09T03:29:24;17.9;73.5
79187;SHT31;68762;51.980;5.646;2023-10-09T03:31:53;17.9;73.6
79187;SHT31;68762;51.980;5.646;2023-10-09T03:34:23;18.0;73.6
79187;SHT31;68762;51.980;5.646;2023-10-09T03:36:52;18.0;73.5
79187;SHT31;68762;51.980;5.646;2023-10-09T03:39:26;18.0;73.5
79187;SHT31;68762;51.980;5.646;2023-10-09T03:42:05;18.0;73.4
79187;SHT31;68762;51.980;5.646;2023-10-09T03:44:38;18.0;73.4
79187;SHT31;68762;51.980;5.646;2023-10-09T03:47:10;18.0;73.6
79187;SHT31;68762;51.980;5.646;2023-10-09T03:49:43;18.0;73.6
79187;SHT31;68762;51.980;5.646;2023-10-09T03:52:12;18.0;73.6
79187;SHT31;68762;51.980;5.646;2023-10-09T03:54:43;18.0;73.8
79187;SHT31;68762;51.980;5.646;2023-10-09T03:57:13;18.0;73.8
79187;SHT31;68762;51.980;5.646;2023-10-09T03:59:44;18.0;73.8
79187;SHT31;68762;51.980;5.646;2023-10-09T04:02:13;18.0;73.9
79187;SHT31;68762;51.980;5.646;2023-10-09T04:04:43;18.0;73.8
79187;SHT31;68762;51.980;5.646;2023-10-09T04:07:14;18.0;73.6
79187;SHT31;68762;51.980;5.646;2023-10-09T04:09:43;18.1;73.6
79187;SHT31;68762;51.980;5.646;2023-10-09T04:12:14;18.1;74.0
79187;SHT31;68762;51.980;5.646;2023-10-09T04:14:51;18.1;73.9
79187;SHT31;68762;51.980;5.646;2023-10-09T04:17:24;18.1;73.8
79187;SHT31;68762;51.980;5.646;2023-10-09T04:20:03;18.1;73.8
79187;SHT31;68762;51.980;5.646;2023-10-09T04:22:49;18.1;73.9
79187;SHT31;68762;51.980;5.646;2023-10-09T04:25:23;18.1;73.9
79187;SHT31;68762;51.980;5.646;2023-10-09T04:27:57;18.1;73.8
79187;SHT31;68762;51.980;5.646;2023-10-09T04:30:31;18.2;74.0
79187;SHT31;68762;51.980;5.646;2023-10-09T04:33:05;18.2;73.9
79187;SHT31;68762;51.980;5.646;2023-10-09T04:35:39;18.2;74.1
79187;SHT31;68762;51.980;5.646;2023-10-09T04:38:12;18.2;74.2
79187;SHT31;68762;51.980;5.646;2023-10-09T04:40:41;18.2;74.2
79187;SHT31;68762;51.980;5.646;2023-10-09T04:43:14;18.2;74.2
79187;SHT31;68762;51.980;5.646;2023-10-09T04:45:48;18.2;74.4
79187;SHT31;68762;51.980;5.646;2023-10-09T04:48:33;18.2;74.5
79187;SHT31;68762;51.980;5.646;2023-10-09T04:51:04;18.2;74.6
79187;SHT31;68762;51.980;5.646;2023-10-09T04:53:58;18.2;74.6
79187;SHT31;68762;51.980;5.646;2023-10-09T04:56:33;18.2;74.7
79187;SHT31;68762;51.980;5.646;2023-10-09T04:59:07;18.2;74.6
79187;SHT31;68762;51.980;5.646;2023-10-09T05:01:36;18.2;74.9
79187;SHT31;68762;51.980;5.646;2023-10-09T05:04:10;18.3;74.9
79187;SHT31;68762;51.980;5.646;2023-10-09T05:06:49;18.3;75.0
79187;SHT31;68762;51.980;5.646;2023-10-09T05:09:24;18.3;75.0
79187;SHT31;68762;51.980;5.646;2023-10-09T05:11:57;18.3;75.0
79187;SHT31;68762;51.980;5.646;2023-10-09T05:14:42;18.3;74.9
79187;SHT31;68762;51.980;5.646;2023-10-09T05:17:15;18.3;75.0
79187;SHT31;68762;51.980;5.646;2023-10-09T05:19:44;18.3;75.0
79187;SHT31;68762;51.980;5.646;2023-10-09T05:22:30;18.3;75.0
79187;SHT31;68762;51.980;5.646;2023-10-09T05:25:03;18.3;75.0
79187;SHT31;68762;51.980;5.646;2023-10-09T05:27:40;18.4;74.9
79187;SHT31;68762;51.980;5.646;2023-10-09T05:30:17;18.4;75.0
79187;SHT31;68762;51.980;5.646;2023-10-09T05:32:59;18.4;74.9
79187;SHT31;68762;51.980;5.646;2023-10-09T05:35:32;18.4;74.9
79187;SHT31;68762;51.980;5.646;2023-10-09T05:38:15;18.4;74.9
79187;SHT31;68762;51.980;5.646;2023-10-09T05:40:48;18.4;74.9
79187;SHT31;68762;51.980;5.646;2023-10-09T05:43:20;18.5;74.7
79187;SHT31;68762;51.980;5.646;2023-10-09T05:46:55;18.5;74.9
79187;SHT31;68762;51.980;5.646;2023-10-09T05:49:37;18.5;74.8
79187;SHT31;68762;51.980;5.646;2023-10-09T05:52:19;18.5;74.8
79187;SHT31;68762;51.980;5.646;2023-10-09T05:55:33;18.5;74.8
79187;SHT31;68762;51.980;5.646;2023-10-09T05:58:18;18.5;74.7
79187;SHT31;68762;51.980;5.646;2023-10-09T06:01:02;18.6;74.7
79187;SHT31;68762;51.980;5.646;2023-10-09T06:03:51;18.6;74.6
79187;SHT31;68762;51.980;5.646;2023-10-09T06:06:28;18.6;74.7
79187;SHT31;68762;51.980;5.646;2023-10-09T06:09:07;18.6;74.7
79187;SHT31;68762;51.980;5.646;2023-10-09T06:13:03;18.6;74.6
79187;SHT31;68762;51.980;5.646;2023-10-09T06:15:37;18.6;74.6
79187;SHT31;68762;51.980;5.646;2023-10-09T06:18:25;18.6;74.5
79187;SHT31;68762;51.980;5.646;2023-10-09T06:20:59;18.7;74.5
79187;SHT31;68762;51.980;5.646;2023-10-09T06:23:43;18.7;74.4
79187;SHT31;68762;51.980;5.646;2023-10-09T06:26:28;18.7;74.5
79187;SHT31;68762;51.980;5.646;2023-10-09T06:28:59;18.7;74.6
79187;SHT31;68762;51.980;5.646;2023-10-09T06:31:43;18.7;74.7
79187;SHT31;68762;51.980;5.646;2023-10-09T06:34:26;18.7;74.8
79187;SHT31;68762;51.980;5.646;2023-10-09T06:37:02;18.7;74.9
79187;SHT31;68762;51.980;5.646;2023-10-09T06:39:40;18.7;74.9
79187;SHT31;68762;51.980;5.646;2023-10-09T06:44:21;18.7;74.9
79187;SHT31;68762;51.980;5.646;2023-10-09T06:47:17;18.7;74.9
79187;SHT31;68762;51.980;5.646;2023-10-09T06:49:50;18.7;74.8
79187;SHT31;68762;51.980;5.646;2023-10-09T06:52:45;18.7;74.8
79187;SHT31;68762;51.980;5.646;2023-10-09T06:55:37;18.7;74.9
79187;SHT31;68762;51.980;5.646;2023-10-09T06:58:14;18.7;75.0
79187;SHT31;68762;51.980;5.646;2023-10-09T07:00:48;18.7;75.0
79187;SHT31;68762;51.980;5.646;2023-10-09T07:03:28;18.7;75.1
79187;SHT31;68762;51.980;5.646;2023-10-09T07:06:06;18.7;75.2
79187;SHT31;68762;51.980;5.646;2023-10-09T07:08:44;18.8;75.1
79187;SHT31;68762;51.980;5.646;2023-10-09T07:11:17;18.8;75.2
79187;SHT31;68762;51.980;5.646;2023-10-09T07:13:54;18.8;75.1
79187;SHT31;68762;51.980;5.646;2023-10-09T07:16:23;18.8;75.2
79187;SHT31;68762;51.980;5.646;2023-10-09T07:19:01;18.8;75.2
79187;SHT31;68762;51.980;5.646;2023-10-09T07:21:42;18.9;75.2
79187;SHT31;68762;51.980;5.646;2023-10-09T07:24:15;18.9;75.2
79187;SHT31;68762;51.980;5.646;2023-10-09T07:26:47;18.9;75.2
79187;SHT31;68762;51.980;5.646;2023-10-09T07:29:19;18.9;75.2
79187;SHT31;68762;51.980;5.646;2023-10-09T07:31:52;18.9;75.3
79187;SHT31;68762;51.980;5.646;2023-10-09T07:34:32;18.9;75.4
79187;SHT31;68762;51.980;5.646;2023-10-09T07:37:16;19.0;75.4
79187;SHT31;68762;51.980;5.646;2023-10-09T07:39:45;19.0;75.3
79187;SHT31;68762;51.980;5.646;2023-10-09T07:42:20;19.0;75.3
79187;SHT31;68762;51.980;5.646;2023-10-09T07:44:59;19.0;75.2
79187;SHT31;68762;51.980;5.646;2023-10-09T07:47:33;19.0;75.1
79187;SHT31;68762;51.980;5.646;2023-10-09T07:50:10;19.0;75.3
79187;SHT31;68762;51.980;5.646;2023-10-09T07:52:44;19.0;75.3
79187;SHT31;68762;51.980;5.646;2023-10-09T07:55:12;19.0;75.5
79187;SHT31;68762;51.980;5.646;2023-10-09T07:57:47;19.0;75.7
79187;SHT31;68762;51.980;5.646;2023-10-09T08:00:18;19.0;75.5
79187;SHT31;68762;51.980;5.646;2023-10-09T08:03:10;19.1;75.8
79187;SHT31;68762;51.980;5.646;2023-10-09T08:05:44;19.1;75.6
79187;SHT31;68762;51.980;5.646;2023-10-09T08:08:12;19.1;75.9
79187;SHT31;68762;51.980;5.646;2023-10-09T08:11:03;19.1;76.1
79187;SHT31;68762;51.980;5.646;2023-10-09T08:13:47;19.2;76.1
79187;SHT31;68762;51.980;5.646;2023-10-09T08:16:27;19.2;76.1
79187;SHT31;68762;51.980;5.646;2023-10-09T08:19:05;19.3;75.9
79187;SHT31;68762;51.980;5.646;2023-10-09T08:21:53;19.3;76.2
79187;SHT31;68762;51.980;5.646;2023-10-09T08:24:41;19.3;75.9
79187;SHT31;68762;51.980;5.646;2023-10-09T08:27:14;19.4;75.8
79187;SHT31;68762;51.980;5.646;2023-10-09T08:30:03;19.4;75.7
79187;SHT31;68762;51.980;5.646;2023-10-09T08:32:47;19.4;75.7
79187;SHT31;68762;51.980;5.646;2023-10-09T08:35:21;19.5;75.8
79187;SHT31;68762;51.980;5.646;2023-10-09T08:37:55;19.5;75.5
79187;SHT31;68762;51.980;5.646;2023-10-09T08:40:29;19.6;75.2
79187;SHT31;68762;51.980;5.646;2023-10-09T08:43:09;19.6;75.5
79187;SHT31;68762;51.980;5.646;2023-10-09T08:45:41;19.6;75.8
79187;SHT31;68762;51.980;5.646;2023-10-09T08:48:13;19.7;75.6
79187;SHT31;68762;51.980;5.646;2023-10-09T08:50:45;19.7;75.4
79187;SHT31;68762;51.980;5.646;2023-10-09T08:53:17;19.8;75.5
79187;SHT31;68762;51.980;5.646;2023-10-09T08:55:45;19.8;75.3
79187;SHT31;68762;51.980;5.646;2023-10-09T08:58:16;19.9;75.2
79187;SHT31;68762;51.980;5.646;2023-10-09T09:00:47;19.9;74.3
79187;SHT31;68762;51.980;5.646;2023-10-09T09:03:17;20.0;74.1
79187;SHT31;68762;51.980;5.646;2023-10-09T09:05:59;20.0;74.2
79187;SHT31;68762;51.980;5.646;2023-10-09T09:08:30;20.0;73.9
79187;SHT31;68762;51.980;5.646;2023-10-09T09:11:04;20.1;73.4
79187;SHT31;68762;51.980;5.646;2023-10-09T09:13:43;20.1;73.9
79187;SHT31;68762;51.980;5.646;2023-10-09T09:16:16;20.2;73.8
79187;SHT31;68762;51.980;5.646;2023-10-09T09:18:55;20.2;73.4
79187;SHT31;68762;51.980;5.646;2023-10-09T09:21:37;20.3;73.0
79187;SHT31;68762;51.980;5.646;2023-10-09T09:24:09;20.3;73.2
79187;SHT31;68762;51.980;5.646;2023-10-09T09:26:50;20.4;73.0
79187;SHT31;68762;51.980;5.646;2023-10-09T09:29:39;20.4;73.0
79187;SHT31;68762;51.980;5.646;2023-10-09T09:32:15;20.5;73.0
79187;SHT31;68762;51.980;5.646;2023-10-09T09:34:47;20.5;73.3
79187;SHT31;68762;51.980;5.646;2023-10-09T09:37:21;20.5;72.6
79187;SHT31;68762;51.980;5.646;2023-10-09T09:39:54;20.6;72.8
79187;SHT31;68762;51.980;5.646;2023-10-09T09:42:27;20.6;72.7
79187;SHT31;68762;51.980;5.646;2023-10-09T09:45:01;20.7;72.4
79187;SHT31;68762;51.980;5.646;2023-10-09T09:47:31;20.7;71.9
79187;SHT31;68762;51.980;5.646;2023-10-09T09:50:05;20.8;71.7
79187;SHT31;68762;51.980;5.646;2023-10-09T09:52:44;20.8;71.3
79187;SHT31;68762;51.980;5.646;2023-10-09T09:55:13;20.9;70.8
79187;SHT31;68762;51.980;5.646;2023-10-09T09:57:48;20.9;70.8
79187;SHT31;68762;51.980;5.646;2023-10-09T10:00:21;21.0;70.5
79187;SHT31;68762;51.980;5.646;2023-10-09T10:03:10;21.1;70.0
79187;SHT31;68762;51.980;5.646;2023-10-09T10:05:41;21.1;69.7
79187;SHT31;68762;51.980;5.646;2023-10-09T10:08:15;21.2;70.4
79187;SHT31;68762;51.980;5.646;2023-10-09T10:10:48;21.2;69.6
79187;SHT31;68762;51.980;5.646;2023-10-09T10:13:55;21.3;69.6
79187;SHT31;68762;51.980;5.646;2023-10-09T10:16:27;21.3;69.6
79187;SHT31;68762;51.980;5.646;2023-10-09T10:19:02;21.4;68.7
79187;SHT31;68762;51.980;5.646;2023-10-09T10:21:49;21.4;69.0
79187;SHT31;68762;51.980;5.646;2023-10-09T10:24:43;21.4;69.3
79187;SHT31;68762;51.980;5.646;2023-10-09T10:27:22;21.4;68.8
79187;SHT31;68762;51.980;5.646;2023-10-09T10:30:29;21.5;68.9
79187;SHT31;68762;51.980;5.646;2023-10-09T10:33:04;21.5;69.1
79187;SHT31;68762;51.980;5.646;2023-10-09T10:35:42;21.5;68.3
79187;SHT31;68762;51.980;5.646;2023-10-09T10:38:29;21.6;68.0
79187;SHT31;68762;51.980;5.646;2023-10-09T10:41:13;21.6;68.1
79187;SHT31;68762;51.980;5.646;2023-10-09T10:43:43;21.7;68.4
79187;SHT31;68762;51.980;5.646;2023-10-09T10:46:26;21.7;67.9
79187;SHT31;68762;51.980;5.646;2023-10-09T10:49:04;21.7;68.6
79187;SHT31;68762;51.980;5.646;2023-10-09T10:51:49;21.8;70.0
79187;SHT31;68762;51.980;5.646;2023-10-09T10:54:24;21.8;67.7
79187;SHT31;68762;51.980;5.646;2023-10-09T10:57:16;21.9;68.3
79187;SHT31;68762;51.980;5.646;2023-10-09T11:00:01;21.9;67.6
79187;SHT31;68762;51.980;5.646;2023-10-09T11:02:46;22.0;67.4
79187;SHT31;68762;51.980;5.646;2023-10-09T11:05:15;22.0;67.6
79187;SHT31;68762;51.980;5.646;2023-10-09T11:07:49;22.1;67.6
79187;SHT31;68762;51.980;5.646;2023-10-09T11:10:22;22.1;67.0
79187;SHT31;68762;51.980;5.646;2023-10-09T11:12:54;22.2;67.5
79187;SHT31;68762;51.980;5.646;2023-10-09T11:15:57;22.2;66.6
79187;SHT31;68762;51.980;5.646;2023-10-09T11:18:40;22.3;66.3
79187;SHT31;68762;51.980;5.646;2023-10-09T11:21:13;22.3;66.6
79187;SHT31;68762;51.980;5.646;2023-10-09T11:23:57;22.4;66.2
79187;SHT31;68762;51.980;5.646;2023-10-09T11:26:31;22.4;66.3
79187;SHT31;68762;51.980;5.646;2023-10-09T11:29:09;22.5;66.8
79187;SHT31;68762;51.980;5.646;2023-10-09T11:31:59;22.6;66.6
79187;SHT31;68762;51.980;5.646;2023-10-09T11:34:28;22.6;65.9
79187;SHT31;68762;51.980;5.646;2023-10-09T11:37:02;22.7;65.9
79187;SHT31;68762;51.980;5.646;2023-10-09T11:39:32;22.7;64.7
79187;SHT31;68762;51.980;5.646;2023-10-09T11:42:05;22.7;65.2
79187;SHT31;68762;51.980;5.646;2023-10-09T11:44:38;22.8;64.6
79187;SHT31;68762;51.980;5.646;2023-10-09T11:47:12;22.8;64.6
79187;SHT31;68762;51.980;5.646;2023-10-09T11:49:54;22.8;63.4
79187;SHT31;68762;51.980;5.646;2023-10-09T11:52:32;22.8;64.0
79187;SHT31;68762;51.980;5.646;2023-10-09T11:55:05;22.9;64.0
79187;SHT31;68762;51.980;5.646;2023-10-09T11:57:42;22.9;63.7
79187;SHT31;68762;51.980;5.646;2023-10-09T12:00:11;22.9;63.2
79187;SHT31;68762;51.980;5.646;2023-10-09T12:02:47;22.9;62.6
79187;SHT31;68762;51.980;5.646;2023-10-09T12:05:16;22.9;62.7
79187;SHT31;68762;51.980;5.646;2023-10-09T12:07:46;22.9;63.0
79187;SHT31;68762;51.980;5.646;2023-10-09T12:10:15;22.9;63.2
79187;SHT31;68762;51.980;5.646;2023-10-09T12:12:49;22.9;62.0
79187;SHT31;68762;51.980;5.646;2023-10-09T12:15:17;22.9;62.5
79187;SHT31;68762;51.980;5.646;2023-10-09T12:17:47;23.0;61.7
79187;SHT31;68762;51.980;5.646;2023-10-09T12:20:16;23.0;62.2
79187;SHT31;68762;51.980;5.646;2023-10-09T12:22:59;23.0;61.7
79187;SHT31;68762;51.980;5.646;2023-10-09T12:25:32;23.0;61.4
79187;SHT31;68762;51.980;5.646;2023-10-09T12:28:02;23.0;62.5
79187;SHT31;68762;51.980;5.646;2023-10-09T12:30:31;23.0;62.9
79187;SHT31;68762;51.980;5.646;2023-10-09T12:33:06;23.0;62.2
79187;SHT31;68762;51.980;5.646;2023-10-09T12:35:39;23.0;62.2
79187;SHT31;68762;51.980;5.646;2023-10-09T12:38:07;23.0;61.5
79187;SHT31;68762;51.980;5.646;2023-10-09T12:40:41;23.1;61.8
79187;SHT31;68762;51.980;5.646;2023-10-09T12:43:15;23.1;62.1
79187;SHT31;68762;51.980;5.646;2023-10-09T12:45:43;23.1;61.2
79187;SHT31;68762;51.980;5.646;2023-10-09T12:48:12;23.1;62.0
79187;SHT31;68762;51.980;5.646;2023-10-09T12:50:41;23.1;62.1
79187;SHT31;68762;51.980;5.646;2023-10-09T12:53:11;23.1;62.1
79187;SHT31;68762;51.980;5.646;2023-10-09T12:55:44;23.1;61.9
79187;SHT31;68762;51.980;5.646;2023-10-09T12:58:15;23.1;61.8
79187;SHT31;68762;51.980;5.646;2023-10-09T13:00:44;23.0;61.9
79187;SHT31;68762;51.980;5.646;2023-10-09T13:03:16;23.0;61.9
79187;SHT31;68762;51.980;5.646;2023-10-09T13:05:49;23.0;62.2
79187;SHT31;68762;51.980;5.646;2023-10-09T13:08:22;23.0;62.2
79187;SHT31;68762;51.980;5.646;2023-10-09T13:10:57;23.0;62.8
79187;SHT31;68762;51.980;5.646;2023-10-09T13:13:34;23.0;62.0
79187;SHT31;68762;51.980;5.646;2023-10-09T13:16:13;23.0;62.2
79187;SHT31;68762;51.980;5.646;2023-10-09T13:18:46;23.0;62.7
79187;SHT31;68762;51.980;5.646;2023-10-09T13:21:19;23.0;63.2
79187;SHT31;68762;51.980;5.646;2023-10-09T13:23:49;23.0;62.7
79187;SHT31;68762;51.980;5.646;2023-10-09T13:26:20;23.0;63.0
79187;SHT31;68762;51.980;5.646;2023-10-09T13:28:57;23.0;62.6
79187;SHT31;68762;51.980;5.646;2023-10-09T13:31:26;23.0;62.5
79187;SHT31;68762;51.980;5.646;2023-10-09T13:33:58;23.0;62.5
79187;SHT31;68762;51.980;5.646;2023-10-09T13:36:28;23.1;62.8
79187;SHT31;68762;51.980;5.646;2023-10-09T13:38:58;23.1;63.9
79187;SHT31;68762;51.980;5.646;2023-10-09T13:41:32;23.1;63.3
79187;SHT31;68762;51.980;5.646;2023-10-09T13:44:00;23.1;63.7
79187;SHT31;68762;51.980;5.646;2023-10-09T13:46:29;23.1;62.6
79187;SHT31;68762;51.980;5.646;2023-10-09T13:48:59;23.1;62.5
79187;SHT31;68762;51.980;5.646;2023-10-09T13:51:28;23.1;62.7
79187;SHT31;68762;51.980;5.646;2023-10-09T13:53:59;23.1;62.1
79187;SHT31;68762;51.980;5.646;2023-10-09T13:56:28;23.1;62.6
79187;SHT31;68762;51.980;5.646;2023-10-09T13:58:56;23.1;62.7
79187;SHT31;68762;51.980;5.646;2023-10-09T14:01:28;23.1;62.2
79187;SHT31;68762;51.980;5.646;2023-10-09T14:04:00;23.1;62.4
79187;SHT31;68762;51.980;5.646;2023-10-09T14:06:32;23.1;62.9
79187;SHT31;68762;51.980;5.646;2023-10-09T14:09:04;23.1;63.0
79187;SHT31;68762;51.980;5.646;2023-10-09T14:11:37;23.1;62.9
79187;SHT31;68762;51.980;5.646;2023-10-09T14:14:12;23.1;62.7
79187;SHT31;68762;51.980;5.646;2023-10-09T14:16:42;23.1;62.4
79187;SHT31;68762;51.980;5.646;2023-10-09T14:19:12;23.1;63.2
79187;SHT31;68762;51.980;5.646;2023-10-09T14:21:41;23.1;63.0
79187;SHT31;68762;51.980;5.646;2023-10-09T14:24:10;23.1;62.8
79187;SHT31;68762;51.980;5.646;2023-10-09T14:26:44;23.1;62.5
79187;SHT31;68762;51.980;5.646;2023-10-09T14:29:15;23.1;62.5
79187;SHT31;68762;51.980;5.646;2023-10-09T14:31:44;23.1;62.7
79187;SHT31;68762;51.980;5.646;2023-10-09T14:34:17;23.1;62.8
79187;SHT31;68762;51.980;5.646;2023-10-09T14:36:47;23.1;63.1
79187;SHT31;68762;51.980;5.646;2023-10-09T14:39:18;23.1;62.7
79187;SHT31;68762;51.980;5.646;2023-10-09T14:41:51;23.1;62.3
79187;SHT31;68762;51.980;5.646;2023-10-09T14:44:21;23.0;62.5
79187;SHT31;68762;51.980;5.646;2023-10-09T14:46:50;23.0;62.2
79187;SHT31;68762;51.980;5.646;2023-10-09T14:49:18;23.0;62.2
79187;SHT31;68762;51.980;5.646;2023-10-09T14:51:48;23.0;62.5
79187;SHT31;68762;51.980;5.646;2023-10-09T14:54:17;23.0;62.9
79187;SHT31;68762;51.980;5.646;2023-10-09T14:56:46;23.0;63.5
79187;SHT31;68762;51.980;5.646;2023-10-09T14:59:16;23.0;63.0
79187;SHT31;68762;51.980;5.646;2023-10-09T15:01:45;23.0;62.8
79187;SHT31;68762;51.980;5.646;2023-10-09T15:04:15;23.0;63.3
79187;SHT31;68762;51.980;5.646;2023-10-09T15:06:43;23.0;63.0
79187;SHT31;68762;51.980;5.646;2023-10-09T15:09:15;23.0;62.7
79187;SHT31;68762;51.980;5.646;2023-10-09T15:11:50;23.0;62.7
79187;SHT31;68762;51.980;5.646;2023-10-09T15:14:19;23.1;63.2
79187;SHT31;68762;51.980;5.646;2023-10-09T15:16:50;23.1;63.2
79187;SHT31;68762;51.980;5.646;2023-10-09T15:19:18;23.1;63.1
79187;SHT31;68762;51.980;5.646;2023-10-09T15:21:52;23.1;63.0
79187;SHT31;68762;51.980;5.646;2023-10-09T15:24:20;23.0;62.5
79187;SHT31;68762;51.980;5.646;2023-10-09T15:26:49;23.0;63.0
79187;SHT31;68762;51.980;5.646;2023-10-09T15:29:24;23.0;62.6
79187;SHT31;68762;51.980;5.646;2023-10-09T15:31:57;23.0;62.5
79187;SHT31;68762;51.980;5.646;2023-10-09T15:34:30;23.0;62.2
79187;SHT31;68762;51.980;5.646;2023-10-09T15:37:01;23.0;62.8
79187;SHT31;68762;51.980;5.646;2023-10-09T15:39:30;23.0;63.1
79187;SHT31;68762;51.980;5.646;2023-10-09T15:41:59;23.0;63.1
79187;SHT31;68762;51.980;5.646;2023-10-09T15:44:30;23.0;63.0
79187;SHT31;68762;51.980;5.646;2023-10-09T15:47:00;22.9;63.1
79187;SHT31;68762;51.980;5.646;2023-10-09T15:49:29;22.9;62.7
79187;SHT31;68762;51.980;5.646;2023-10-09T15:52:02;22.9;63.1
79187;SHT31;68762;51.980;5.646;2023-10-09T15:54:34;22.9;63.2
79187;SHT31;68762;51.980;5.646;2023-10-09T15:57:03;22.9;63.3
79187;SHT31;68762;51.980;5.646;2023-10-09T15:59:31;22.9;63.2
79187;SHT31;68762;51.980;5.646;2023-10-09T16:02:00;22.9;63.4
79187;SHT31;68762;51.980;5.646;2023-10-09T16:04:30;22.8;63.8
79187;SHT31;68762;51.980;5.646;2023-10-09T16:07:00;22.8;63.6
79187;SHT31;68762;51.980;5.646;2023-10-09T16:09:31;22.8;63.7
79187;SHT31;68762;51.980;5.646;2023-10-09T16:12:04;22.8;64.0
79187;SHT31;68762;51.980;5.646;2023-10-09T16:14:33;22.8;64.2
79187;SHT31;68762;51.980;5.646;2023-10-09T16:17:02;22.8;64.6
79187;SHT31;68762;51.980;5.646;2023-10-09T16:19:32;22.8;64.5
79187;SHT31;68762;51.980;5.646;2023-10-09T16:22:03;22.8;64.4
79187;SHT31;68762;51.980;5.646;2023-10-09T16:24:32;22.8;64.4
79187;SHT31;68762;51.980;5.646;2023-10-09T16:27:02;22.8;64.4
79187;SHT31;68762;51.980;5.646;2023-10-09T16:29:31;22.8;64.7
79187;SHT31;68762;51.980;5.646;2023-10-09T16:32:00;22.7;64.5
79187;SHT31;68762;51.980;5.646;2023-10-09T16:34:29;22.7;64.3
79187;SHT31;68762;51.980;5.646;2023-10-09T16:36:58;22.7;64.0
79187;SHT31;68762;51.980;5.646;2023-10-09T16:39:27;22.7;64.2
79187;SHT31;68762;51.980;5.646;2023-10-09T16:42:02;22.7;63.9
79187;SHT31;68762;51.980;5.646;2023-10-09T16:44:31;22.6;64.1
79187;SHT31;68762;51.980;5.646;2023-10-09T16:47:03;22.6;63.8
79187;SHT31;68762;51.980;5.646;2023-10-09T16:49:32;22.6;64.0
79187;SHT31;68762;51.980;5.646;2023-10-09T16:52:00;22.5;64.1